createdAt,value
2019-02-16T00:01:29.527Z,7.30
2019-02-16T00:03:57.819Z,8.00
2019-02-16T00:06:26.086Z,8.30
2019-02-16T00:08:54.310Z,8.47
2019-02-16T00:11:22.581Z,8.57
2019-02-16T00:13:50.774Z,8.10
2019-02-16T00:16:19.074Z,8.47
2019-02-16T00:18:47.329Z,7.80
2019-02-16T00:21:15.550Z,8.40
2019-02-16T00:23:43.748Z,8.00
2019-02-16T00:26:12.054Z,7.83
2019-02-16T00:28:40.314Z,8.30
2019-02-16T00:31:08.533Z,8.40
2019-02-16T00:33:36.726Z,8.60
2019-02-16T00:36:04.942Z,9.77
2019-02-16T00:38:33.138Z,8.50
2019-02-16T00:41:01.434Z,7.87
2019-02-16T00:43:29.702Z,7.30
2019-02-16T00:45:57.942Z,8.67
2019-02-16T00:48:26.214Z,7.90
2019-02-16T00:50:54.473Z,8.17
2019-02-16T00:53:22.695Z,8.20
2019-02-16T00:55:50.971Z,8.60
2019-02-16T00:58:19.266Z,9.27
2019-02-16T01:00:47.538Z,8.90
2019-02-16T01:03:15.830Z,8.83
2019-02-16T01:05:44.030Z,8.33
2019-02-16T01:08:12.318Z,7.50
2019-02-16T01:10:40.510Z,8.27
2019-02-16T01:13:08.821Z,8.20
2019-02-16T01:15:37.017Z,7.00
2019-02-16T01:18:05.214Z,7.33
2019-02-16T01:20:33.437Z,6.40
2019-02-16T01:23:01.630Z,7.90
2019-02-16T01:25:29.941Z,7.67
2019-02-16T01:27:58.213Z,7.50
2019-02-16T01:30:26.506Z,6.63
2019-02-16T01:32:54.707Z,6.70
2019-02-16T01:35:23.011Z,7.33
2019-02-16T01:37:51.279Z,7.50
2019-02-16T01:40:19.773Z,7.30
2019-02-16T01:42:48.021Z,7.63
2019-02-16T01:45:16.214Z,6.90
2019-02-16T01:47:44.510Z,7.00
2019-02-16T01:50:12.776Z,7.27
2019-02-16T01:52:41.070Z,7.30
2019-02-16T01:55:09.494Z,7.47
2019-02-16T01:57:37.734Z,6.50
2019-02-16T02:00:07.435Z,6.40
2019-02-16T02:02:35.641Z,7.33
2019-02-16T02:05:04.135Z,7.73
2019-02-16T02:07:32.326Z,6.70
2019-02-16T02:10:00.617Z,7.30
2019-02-16T02:12:28.886Z,7.43
2019-02-16T02:14:57.233Z,7.47
2019-02-16T02:17:25.450Z,7.50
2019-02-16T02:19:53.756Z,7.10
2019-02-16T02:22:22.025Z,7.00
2019-02-16T02:24:50.241Z,6.93
2019-02-16T02:27:18.429Z,8.47
2019-02-16T02:29:46.751Z,7.90
2019-02-16T02:32:14.943Z,7.73
2019-02-16T02:34:43.218Z,8.00
2019-02-16T02:37:11.506Z,8.10
2019-02-16T02:39:39.770Z,8.70
2019-02-16T02:42:08.074Z,8.60
2019-02-16T02:44:36.342Z,7.83
2019-02-16T02:47:04.634Z,7.83
2019-02-16T02:49:32.825Z,7.93
2019-02-16T02:52:01.061Z,8.03
2019-02-16T02:54:29.259Z,7.90
2019-02-16T02:56:57.538Z,7.67
2019-02-16T02:59:25.844Z,8.03
2019-02-16T03:01:54.106Z,7.60
2019-02-16T03:04:22.327Z,6.70
2019-02-16T03:06:50.595Z,7.30
2019-02-16T03:09:18.891Z,6.37
2019-02-16T03:11:47.251Z,7.70
2019-02-16T03:14:15.559Z,7.80
2019-02-16T03:16:43.827Z,6.40
2019-02-16T03:19:12.121Z,6.93
2019-02-16T03:21:40.314Z,7.17
2019-02-16T03:24:08.506Z,6.53
2019-02-16T03:26:44.281Z,6.40
2019-02-16T03:29:14.024Z,6.20
2019-02-16T03:31:43.849Z,6.67
2019-02-16T03:34:13.672Z,7.37
2019-02-16T03:36:46.185Z,7.07
2019-02-16T03:39:15.124Z,6.03
2019-02-16T03:41:43.415Z,7.37
2019-02-16T03:44:11.678Z,7.37
2019-02-16T03:46:39.902Z,6.50
2019-02-16T03:49:08.166Z,6.60
2019-02-16T03:51:36.455Z,7.20
2019-02-16T03:54:04.803Z,7.97
2019-02-16T03:56:33.121Z,8.03
2019-02-16T03:59:01.386Z,7.40
2019-02-16T04:01:29.577Z,6.37
2019-02-16T04:03:57.871Z,7.00
2019-02-16T04:06:26.133Z,7.00
2019-02-16T04:08:54.345Z,7.10
2019-02-16T04:11:22.539Z,6.47
2019-02-16T04:13:50.831Z,6.80
2019-02-16T04:16:19.098Z,7.40
2019-02-16T04:18:47.395Z,7.50
2019-02-16T04:21:15.657Z,7.80
2019-02-16T04:23:43.902Z,8.33
2019-02-16T04:26:12.122Z,7.97
2019-02-16T04:28:40.382Z,7.53
2019-02-16T04:31:08.755Z,7.23
2019-02-16T04:33:37.018Z,8.17
2019-02-16T04:36:05.238Z,7.57
2019-02-16T04:38:33.485Z,8.20
2019-02-16T04:41:01.733Z,7.97
2019-02-16T04:43:29.996Z,9.13
2019-02-16T04:45:58.290Z,8.60
2019-02-16T04:48:26.560Z,7.90
2019-02-16T04:50:54.833Z,8.63
2019-02-16T04:53:23.118Z,7.87
2019-02-16T04:55:51.386Z,8.87
2019-02-16T04:58:19.614Z,10.33
2019-02-16T05:00:47.873Z,9.20
2019-02-16T05:03:16.092Z,9.40
2019-02-16T05:05:44.357Z,9.80
2019-02-16T05:08:12.573Z,8.70
2019-02-16T05:10:40.771Z,9.07
2019-02-16T05:13:09.101Z,9.63
2019-02-16T05:15:37.347Z,9.33
2019-02-16T05:18:05.618Z,9.07
2019-02-16T05:20:33.833Z,9.83
2019-02-16T05:23:02.031Z,9.20
2019-02-16T05:25:30.327Z,9.80
2019-02-16T05:27:58.603Z,10.13
2019-02-16T05:30:26.895Z,9.80
2019-02-16T05:32:55.177Z,9.90
2019-02-16T05:35:23.461Z,9.63
2019-02-16T05:37:51.657Z,10.27
2019-02-16T05:40:19.852Z,9.00
2019-02-16T05:42:48.234Z,9.30
2019-02-16T05:45:16.424Z,8.60
2019-02-16T05:47:44.719Z,8.17
2019-02-16T05:50:12.994Z,8.80
2019-02-16T05:52:41.217Z,7.80
2019-02-16T05:55:09.480Z,8.30
2019-02-16T05:57:37.774Z,9.03
2019-02-16T06:00:08.183Z,9.10
2019-02-16T06:02:36.478Z,8.33
2019-02-16T06:05:05.323Z,7.40
2019-02-16T06:07:33.643Z,8.80
2019-02-16T06:10:01.909Z,7.97
2019-02-16T06:12:30.105Z,8.23
2019-02-16T06:14:58.326Z,7.90
2019-02-16T06:17:26.588Z,7.60
2019-02-16T06:19:54.894Z,7.50
2019-02-16T06:22:23.086Z,7.90
2019-02-16T06:24:51.306Z,8.00
2019-02-16T06:27:19.499Z,7.10
2019-02-16T06:29:47.807Z,6.90
2019-02-16T06:32:16.073Z,7.43
2019-02-16T06:34:44.361Z,6.80
2019-02-16T06:37:17.138Z,7.10
2019-02-16T06:39:45.630Z,7.20
2019-02-16T06:42:13.904Z,7.03
2019-02-16T06:44:42.166Z,6.30
2019-02-16T06:47:10.462Z,7.10
2019-02-16T06:49:38.653Z,6.70
2019-02-16T06:52:06.870Z,7.20
2019-02-16T06:54:35.138Z,7.80
2019-02-16T06:57:05.013Z,7.27
2019-02-16T06:59:33.274Z,6.70
2019-02-16T07:02:01.501Z,7.53
2019-02-16T07:04:29.768Z,6.30
2019-02-16T07:06:58.086Z,7.50
2019-02-16T07:09:26.286Z,6.73
2019-02-16T07:11:54.555Z,6.03
2019-02-16T07:14:22.841Z,6.70
2019-02-16T07:16:58.541Z,6.20
2019-02-16T07:19:31.489Z,7.10
2019-02-16T07:21:59.754Z,7.30
2019-02-16T07:24:28.054Z,6.80
2019-02-16T07:26:56.315Z,7.67
2019-02-16T07:29:24.610Z,7.37
2019-02-16T07:31:52.802Z,7.20
2019-02-16T07:34:21.098Z,6.60
2019-02-16T07:36:49.367Z,7.77
2019-02-16T07:39:17.642Z,6.83
2019-02-16T07:41:45.942Z,8.97
2019-02-16T07:44:30.657Z,6.77
2019-02-16T07:47:00.612Z,8.50
2019-02-16T07:49:42.542Z,9.13
2019-02-16T07:52:30.634Z,10.37
2019-02-16T07:55:00.497Z,10.80
2019-02-16T07:57:36.214Z,10.50
2019-02-16T08:00:13.007Z,10.40
2019-02-16T08:02:55.007Z,10.60
2019-02-16T08:05:30.950Z,9.87
2019-02-16T08:08:00.793Z,11.70
2019-02-16T08:10:36.469Z,9.10
2019-02-16T08:13:06.397Z,8.87
2019-02-16T08:15:38.934Z,10.77
2019-02-16T08:18:17.876Z,10.90
2019-02-16T08:20:47.774Z,10.87
2019-02-16T08:23:26.780Z,10.90
2019-02-16T08:25:59.379Z,9.60
2019-02-16T08:28:29.251Z,9.40
2019-02-16T08:31:01.855Z,9.60
2019-02-16T08:33:46.621Z,9.73
2019-02-16T08:36:22.505Z,10.17
2019-02-16T08:38:58.305Z,9.37
2019-02-16T08:41:31.073Z,9.57
2019-02-16T08:44:10.013Z,10.27
2019-02-16T08:46:49.004Z,10.07
2019-02-16T08:49:18.947Z,9.47
2019-02-16T08:52:00.814Z,9.30
2019-02-16T08:54:30.754Z,10.00
2019-02-16T08:57:09.603Z,9.03
2019-02-16T08:59:55.595Z,10.73
2019-02-16T09:02:25.426Z,11.40
2019-02-16T09:04:55.257Z,10.43
2019-02-16T09:07:25.195Z,12.07
2019-02-16T09:09:55.102Z,11.03
2019-02-16T09:12:30.579Z,12.10
2019-02-16T09:15:15.497Z,11.40
2019-02-16T09:17:48.205Z,11.53
2019-02-16T09:20:18.037Z,11.03
2019-02-16T09:22:47.970Z,10.97
2019-02-16T09:25:34.074Z,11.10
2019-02-16T09:28:04.012Z,10.80
2019-02-16T09:30:45.526Z,10.53
2019-02-16T09:33:15.463Z,11.40
2019-02-16T09:35:48.053Z,10.67
2019-02-16T09:38:17.921Z,10.20
2019-02-16T09:40:53.512Z,9.80
2019-02-16T09:43:32.558Z,10.57
2019-02-16T09:46:05.398Z,10.20
2019-02-16T09:48:41.089Z,11.23
2019-02-16T09:51:16.837Z,10.43
2019-02-16T09:54:08.467Z,9.47
2019-02-16T09:56:40.089Z,10.40
2019-02-16T09:59:09.951Z,10.93
2019-02-16T10:01:42.556Z,11.00
2019-02-16T10:04:12.481Z,10.70
2019-02-16T10:06:48.324Z,10.47
2019-02-16T10:09:18.257Z,10.43
2019-02-16T10:11:50.975Z,10.77
2019-02-16T10:14:32.787Z,10.20
2019-02-16T10:17:14.778Z,10.10
2019-02-16T10:19:47.633Z,9.00
2019-02-16T10:22:23.561Z,7.97
2019-02-16T10:25:02.519Z,9.10
2019-02-16T10:27:47.440Z,9.60
2019-02-16T10:30:20.110Z,10.03
2019-02-16T10:32:52.949Z,9.17
2019-02-16T10:35:25.368Z,8.57
2019-02-16T10:38:01.358Z,9.17
2019-02-16T10:40:37.396Z,9.87
2019-02-16T10:43:07.302Z,8.90
2019-02-16T10:45:43.091Z,10.07
2019-02-16T10:48:24.801Z,8.70
2019-02-16T10:50:57.419Z,9.23
2019-02-16T10:53:39.333Z,8.80
2019-02-16T10:56:15.350Z,9.73
2019-02-16T10:58:45.184Z,9.63
2019-02-16T11:01:23.853Z,10.50
2019-02-16T11:03:53.698Z,10.00
2019-02-16T11:06:38.313Z,10.43
2019-02-16T11:09:08.522Z,9.40
2019-02-16T11:11:38.458Z,9.30
2019-02-16T11:14:26.620Z,9.37
2019-02-16T11:17:12.600Z,9.20
2019-02-16T11:19:45.202Z,9.90
2019-02-16T11:22:30.293Z,8.80
2019-02-16T11:25:06.166Z,10.60
2019-02-16T11:27:40.348Z,9.97
2019-02-16T11:30:13.578Z,10.73
2019-02-16T11:32:59.959Z,9.97
2019-02-16T11:35:29.862Z,10.03
2019-02-16T11:37:59.814Z,10.20
2019-02-16T11:40:32.594Z,9.93
2019-02-16T11:43:05.309Z,9.83
2019-02-16T11:45:44.001Z,8.70
2019-02-16T11:48:22.798Z,9.67
2019-02-16T11:50:52.731Z,10.60
2019-02-16T11:53:34.706Z,9.80
2019-02-16T11:56:04.562Z,9.53
2019-02-16T11:58:37.328Z,9.73
2019-02-16T12:01:10.177Z,9.97
2019-02-16T12:03:52.061Z,9.30
2019-02-16T12:06:36.678Z,8.27
2019-02-16T12:09:23.274Z,8.87
2019-02-16T12:12:11.134Z,7.90
2019-02-16T12:14:50.023Z,8.10
2019-02-16T12:17:19.928Z,8.20
2019-02-16T12:19:58.518Z,8.70
2019-02-16T12:22:37.453Z,7.47
2019-02-16T12:25:16.549Z,8.00
2019-02-16T12:27:49.298Z,8.63
2019-02-16T12:30:24.958Z,7.77
2019-02-16T12:32:54.881Z,7.40
2019-02-16T12:35:27.497Z,7.90
2019-02-16T12:38:03.166Z,8.17
2019-02-16T12:40:35.887Z,8.63
2019-02-16T12:43:05.789Z,7.83
2019-02-16T12:45:50.825Z,7.37
2019-02-16T12:48:15.987Z,7.07
2019-02-16T12:50:48.429Z,8.03
2019-02-16T12:53:34.489Z,8.23
2019-02-16T12:56:13.398Z,8.17
2019-02-16T12:58:43.337Z,7.80
2019-02-16T13:01:19.210Z,7.37
2019-02-16T13:04:05.214Z,7.47
2019-02-16T13:06:35.172Z,7.20
2019-02-16T13:09:05.114Z,7.30
2019-02-16T13:11:35.018Z,7.30
2019-02-16T13:14:13.797Z,7.60
2019-02-16T13:16:43.686Z,6.70
2019-02-16T13:19:13.611Z,7.27
2019-02-16T13:21:52.630Z,6.70
2019-02-16T13:24:34.303Z,7.27
2019-02-16T13:27:16.014Z,7.77
2019-02-16T13:29:58.082Z,6.93
2019-02-16T13:32:30.690Z,6.00
2019-02-16T13:35:09.723Z,5.70
2019-02-16T13:37:57.801Z,6.20
2019-02-16T13:40:30.606Z,6.60
2019-02-16T13:43:09.346Z,7.47
2019-02-16T13:45:54.342Z,7.47
2019-02-16T13:48:24.251Z,7.50
2019-02-16T13:51:00.057Z,6.77
2019-02-16T13:53:41.802Z,6.77
2019-02-16T13:56:14.750Z,6.13
2019-02-16T13:58:44.649Z,7.00
2019-02-16T14:01:14.578Z,5.90
2019-02-16T14:03:50.145Z,7.23
2019-02-16T14:06:37.968Z,6.80
2019-02-16T14:09:07.869Z,7.03
2019-02-16T14:11:43.730Z,6.03
2019-02-16T14:14:13.638Z,6.97
2019-02-16T14:16:55.546Z,7.07
2019-02-16T14:19:23.810Z,6.90
2019-02-16T14:21:52.029Z,7.30
2019-02-16T14:24:21.934Z,7.40
2019-02-16T14:26:50.177Z,7.30
2019-02-16T14:29:18.449Z,7.13
2019-02-16T14:31:46.714Z,7.30
2019-02-16T14:34:15.011Z,7.03
2019-02-16T14:36:44.342Z,7.07
2019-02-16T14:39:14.270Z,7.00
2019-02-16T14:41:42.466Z,7.97
2019-02-16T14:44:10.763Z,7.67
2019-02-16T14:46:39.023Z,6.60
2019-02-16T14:49:07.322Z,7.73
2019-02-16T14:51:35.584Z,7.17
2019-02-16T14:54:03.894Z,7.20
2019-02-16T14:56:32.085Z,7.33
2019-02-16T14:59:00.278Z,7.90
2019-02-16T15:01:28.510Z,7.80
2019-02-16T15:03:56.761Z,8.27
2019-02-16T15:06:24.978Z,7.33
2019-02-16T15:08:53.246Z,8.17
2019-02-16T15:11:21.547Z,7.87
2019-02-16T15:13:49.815Z,8.83
2019-02-16T15:16:18.106Z,8.13
2019-02-16T15:18:46.366Z,9.10
2019-02-16T15:21:14.638Z,9.30
2019-02-16T15:23:42.853Z,9.03
2019-02-16T15:26:11.093Z,9.40
2019-02-16T15:28:39.310Z,10.07
2019-02-16T15:31:07.505Z,9.60
2019-02-16T15:33:35.810Z,10.50
2019-02-16T15:36:04.141Z,9.30
2019-02-16T15:38:32.357Z,9.47
2019-02-16T15:41:00.551Z,8.50
2019-02-16T15:43:28.847Z,9.50
2019-02-16T15:45:57.109Z,9.63
2019-02-16T15:48:25.326Z,10.67
2019-02-16T15:50:53.598Z,10.70
2019-02-16T15:53:22.773Z,10.93
2019-02-16T15:55:50.962Z,10.97
2019-02-16T15:58:19.291Z,11.13
2019-02-16T16:00:47.672Z,10.67
2019-02-16T16:03:15.998Z,10.80
2019-02-16T16:05:44.289Z,9.93
2019-02-16T16:08:14.190Z,10.70
2019-02-16T16:10:46.810Z,11.30
2019-02-16T16:13:16.648Z,13.83
2019-02-16T16:16:04.555Z,16.00
2019-02-16T16:18:52.297Z,13.83
2019-02-16T16:21:22.202Z,12.47
2019-02-16T16:23:58.030Z,11.13
2019-02-16T16:26:33.648Z,11.73
2019-02-16T16:29:03.552Z,12.00
2019-02-16T16:31:39.658Z,12.27
2019-02-16T16:34:12.341Z,11.83
2019-02-16T16:36:54.363Z,13.50
2019-02-16T16:39:29.925Z,18.03
2019-02-16T16:41:59.777Z,21.20
2019-02-16T16:44:44.490Z,15.20
2019-02-16T16:47:30.461Z,12.63
2019-02-16T16:50:18.684Z,14.00
2019-02-16T16:52:48.278Z,13.47
2019-02-16T16:55:18.185Z,16.10
2019-02-16T16:57:51.026Z,29.17
2019-02-16T17:00:29.818Z,24.17
2019-02-16T17:03:02.823Z,21.57
2019-02-16T17:05:32.801Z,22.80
2019-02-16T17:08:02.780Z,31.70
2019-02-16T17:10:50.761Z,35.17
2019-02-16T17:13:29.626Z,27.70
2019-02-16T17:15:59.470Z,27.60
2019-02-16T17:18:32.161Z,26.33
2019-02-16T17:21:05.030Z,30.03
2019-02-16T17:23:37.986Z,43.00
2019-02-16T17:26:16.645Z,54.90
2019-02-16T17:28:58.538Z,57.20
2019-02-16T17:31:40.478Z,35.03
2019-02-16T17:34:16.150Z,33.63
2019-02-16T17:36:51.971Z,31.50
2019-02-16T17:39:27.829Z,25.27
2019-02-16T17:42:13.802Z,33.50
2019-02-16T17:44:43.658Z,27.13
2019-02-16T17:47:25.350Z,17.13
2019-02-16T17:50:10.476Z,17.47
2019-02-16T17:52:49.202Z,20.23
2019-02-16T17:55:31.314Z,17.80
2019-02-16T17:58:13.342Z,19.27
2019-02-16T18:00:58.390Z,21.00
2019-02-16T18:03:31.262Z,19.57
2019-02-16T18:06:03.890Z,23.87
2019-02-16T18:08:36.746Z,27.87
2019-02-16T18:11:09.710Z,22.43
2019-02-16T18:13:45.706Z,22.20
2019-02-16T18:16:33.595Z,21.87
2019-02-16T18:19:03.510Z,31.47
2019-02-16T18:21:33.446Z,30.70
2019-02-16T18:24:03.463Z,24.20
2019-02-16T18:26:36.320Z,19.20
2019-02-16T18:29:22.366Z,28.47
2019-02-16T18:32:08.574Z,32.90
2019-02-16T18:34:50.438Z,31.73
2019-02-16T18:37:38.347Z,29.60
2019-02-16T18:40:11.153Z,26.67
2019-02-16T18:42:57.067Z,24.67
2019-02-16T18:45:39.046Z,21.37
2019-02-16T18:48:27.016Z,17.43
2019-02-16T18:51:08.891Z,16.13
2019-02-16T18:53:38.798Z,15.60
2019-02-16T18:56:11.318Z,14.80
2019-02-16T18:58:43.963Z,15.13
2019-02-16T19:01:19.994Z,14.80
2019-02-16T19:04:06.276Z,15.30
2019-02-16T19:06:36.169Z,13.37
2019-02-16T19:09:12.653Z,13.70
2019-02-16T19:11:48.413Z,14.20
2019-02-16T19:14:24.486Z,12.37
2019-02-16T19:17:03.502Z,14.90
2019-02-16T19:19:33.415Z,13.97
2019-02-16T19:22:18.143Z,12.17
2019-02-16T19:24:54.002Z,14.50
2019-02-16T19:27:36.033Z,14.63
2019-02-16T19:30:10.015Z,17.17
2019-02-16T19:32:56.270Z,17.53
2019-02-16T19:35:42.530Z,19.70
2019-02-16T19:38:12.467Z,17.00
2019-02-16T19:41:00.225Z,14.40
2019-02-16T19:43:30.101Z,15.80
2019-02-16T19:46:14.838Z,15.50
2019-02-16T19:48:44.777Z,13.37
2019-02-16T19:51:14.690Z,14.43
2019-02-16T19:53:44.843Z,12.50
2019-02-16T19:56:17.554Z,11.10
2019-02-16T19:59:03.625Z,16.60
2019-02-16T20:01:49.817Z,13.03
2019-02-16T20:04:19.717Z,16.90
2019-02-16T20:06:58.324Z,13.87
2019-02-16T20:09:40.277Z,17.87
2019-02-16T20:12:26.515Z,19.47
2019-02-16T20:15:02.228Z,16.50
2019-02-16T20:17:34.822Z,16.77
2019-02-16T20:20:04.994Z,16.27
2019-02-16T20:22:37.676Z,15.60
2019-02-16T20:25:10.362Z,14.67
2019-02-16T20:27:49.415Z,14.40
2019-02-16T20:30:22.006Z,17.87
2019-02-16T20:32:51.934Z,17.37
2019-02-16T20:35:24.537Z,21.20
2019-02-16T20:38:03.449Z,21.07
2019-02-16T20:40:33.286Z,17.47
2019-02-16T20:43:09.338Z,16.37
2019-02-16T20:45:54.349Z,14.97
2019-02-16T20:48:24.281Z,16.10
2019-02-16T20:50:54.194Z,16.07
2019-02-16T20:53:26.985Z,13.50
2019-02-16T20:55:56.886Z,14.77
2019-02-16T20:58:26.746Z,15.00
2019-02-16T21:00:59.401Z,13.37
2019-02-16T21:03:31.951Z,12.63
2019-02-16T21:06:01.857Z,13.73
2019-02-16T21:08:48.070Z,13.33
2019-02-16T21:11:17.973Z,12.70
2019-02-16T21:13:50.600Z,13.30
2019-02-16T21:16:20.497Z,14.40
2019-02-16T21:18:55.926Z,14.43
2019-02-16T21:21:25.765Z,16.10
2019-02-16T21:23:55.693Z,15.13
2019-02-16T21:26:41.614Z,14.80
2019-02-16T21:29:23.514Z,15.97
2019-02-16T21:32:11.362Z,16.20
2019-02-16T21:34:47.398Z,14.33
2019-02-16T21:37:17.302Z,14.03
2019-02-16T21:39:47.270Z,15.50
2019-02-16T21:42:22.898Z,16.47
2019-02-16T21:44:52.826Z,15.60
2019-02-16T21:47:28.810Z,15.57
2019-02-16T21:50:15.078Z,16.03
2019-02-16T21:52:44.910Z,16.57
2019-02-16T21:55:14.838Z,15.73
2019-02-16T21:57:47.418Z,16.90
2019-02-16T22:00:17.530Z,15.30
2019-02-16T22:02:58.344Z,15.37
2019-02-16T22:05:36.578Z,17.03
2019-02-16T22:08:06.482Z,15.13
2019-02-16T22:10:51.506Z,15.43
2019-02-16T22:13:19.710Z,17.77
2019-02-16T22:15:47.981Z,19.37
2019-02-16T22:18:16.281Z,18.50
2019-02-16T22:20:44.546Z,24.03
2019-02-16T22:23:12.846Z,21.80
2019-02-16T22:25:41.110Z,23.13
2019-02-16T22:28:18.429Z,22.70
2019-02-16T22:30:39.318Z,20.40
2019-02-16T22:33:07.682Z,20.07
2019-02-16T22:35:35.950Z,15.77
2019-02-16T22:38:04.244Z,15.17
2019-02-16T22:40:32.506Z,16.30
2019-02-16T22:43:00.705Z,14.80
2019-02-16T22:45:29.002Z,16.90
2019-02-16T22:47:57.280Z,17.27
2019-02-16T22:50:25.558Z,15.17
2019-02-16T22:52:53.817Z,16.40
2019-02-16T22:55:22.110Z,17.17
2019-02-16T22:57:50.402Z,16.27
2019-02-16T23:00:21.335Z,17.53
2019-02-16T23:02:49.831Z,18.13
2019-02-16T23:05:18.166Z,16.73
2019-02-16T23:07:46.440Z,16.90
2019-02-16T23:10:14.737Z,17.03
2019-02-16T23:12:42.998Z,16.63
2019-02-16T23:15:11.866Z,18.87
2019-02-16T23:17:40.276Z,17.73
2019-02-16T23:20:10.010Z,17.10
2019-02-16T23:22:38.322Z,17.60
2019-02-16T23:25:07.643Z,18.33
2019-02-16T23:27:35.931Z,16.43
2019-02-16T23:30:05.653Z,17.37
2019-02-16T23:32:33.873Z,17.80
2019-02-16T23:35:02.071Z,17.67
2019-02-16T23:37:30.507Z,16.00
2019-02-16T23:39:58.910Z,16.80
2019-02-16T23:42:27.231Z,18.50
2019-02-16T23:44:55.465Z,17.00
2019-02-16T23:47:23.703Z,18.40
2019-02-16T23:49:51.965Z,17.60
2019-02-16T23:52:20.297Z,18.20
2019-02-16T23:54:48.551Z,20.00
2019-02-16T23:57:16.794Z,18.70
2019-02-16T23:59:45.022Z,16.90
